Time;durP1;ratioP1;P1;durP2;ratioP2;P2;SDS_P1;SDS_P2;PMS_P1;PMS_P2;Temp;Humidity;BMP_temperature;BMP_pressure;BME280_temperature;BME280_humidity;BME280_pressure;Samples;Min_cycle;Max_cycle;Signal;HPM_P1;HPM_P2
2023/09/07 00:01:36;;;;;;;4.10;3.80;;;;;;;;;;4955204;28;20343;-64
2023/09/07 00:04:03;;;;;;;4.40;3.42;;;;;;;;;;4952904;28;20238;-63
2023/09/07 00:06:32;;;;;;;4.20;3.88;;;;;;;;;;4952955;28;20215;-64
2023/09/07 00:08:59;;;;;;;6.45;3.63;;;;;;;;;;4955705;28;20239;-64
2023/09/07 00:11:26;;;;;;;5.10;3.72;;;;;;;;;;4952845;28;20617;-63
2023/09/07 00:13:53;;;;;;;4.40;3.80;;;;;;;;;;4953785;28;20218;-64
2023/09/07 00:16:20;;;;;;;4.50;4.10;;;;;;;;;;4954016;28;20211;-64
2023/09/07 00:18:47;;;;;;;6.10;4.25;;;;;;;;;;4962112;28;20297;-64
2023/09/07 00:21:14;;;;;;;4.10;3.75;;;;;;;;;;4952445;28;20222;-63
2023/09/07 00:23:42;;;;;;;3.90;3.60;;;;;;;;;;4953423;28;20421;-64
2023/09/07 00:26:12;;;;;;;4.20;3.80;;;;;;;;;;4952144;28;20582;-63
2023/09/07 00:28:39;;;;;;;4.28;3.90;;;;;;;;;;4960564;28;20207;-63
2023/09/07 00:31:06;;;;;;;4.50;3.88;;;;;;;;;;4953381;28;20211;-64
2023/09/07 00:33:33;;;;;;;3.97;3.67;;;;;;;;;;4953457;28;20618;-63
2023/09/07 00:36:03;;;;;;;6.82;4.22;;;;;;;;;;4958061;28;20207;-64
2023/09/07 00:38:30;;;;;;;4.75;3.70;;;;;;;;;;4953172;28;20309;-64
2023/09/07 00:40:58;;;;;;;4.68;3.70;;;;;;;;;;4952305;28;20267;-64
2023/09/07 00:43:25;;;;;;;4.05;3.65;;;;;;;;;;4951973;28;20203;-64
2023/09/07 00:45:52;;;;;;;4.75;3.45;;;;;;;;;;4964331;28;20226;-64
2023/09/07 00:48:20;;;;;;;4.80;3.83;;;;;;;;;;4961934;28;20680;-64
2023/09/07 00:50:47;;;;;;;5.13;3.70;;;;;;;;;;4952593;28;20253;-64
2023/09/07 00:53:14;;;;;;;8.75;4.25;;;;;;;;;;4952162;28;20234;-64
2023/09/07 00:55:41;;;;;;;6.03;3.80;;;;;;;;;;4953031;28;20215;-64
2023/09/07 00:58:11;;;;;;;4.18;3.85;;;;;;;;;;4958894;28;20218;-64
2023/09/07 01:00:38;;;;;;;4.57;3.17;;;;;;;;;;4956478;28;20652;-63
2023/09/07 01:03:05;;;;;;;3.53;3.22;;;;;;;;;;4961831;28;20206;-64
2023/09/07 01:05:35;;;;;;;4.22;3.63;;;;;;;;;;4965034;28;20211;-64
2023/09/07 01:08:07;;;;;;;3.88;3.53;;;;;;;;;;4951449;28;20203;-64
2023/09/07 01:10:34;;;;;;;3.80;3.53;;;;;;;;;;4951408;28;20706;-64
2023/09/07 01:13:01;;;;;;;3.50;3.33;;;;;;;;;;4934438;28;20241;-65
2023/09/07 01:15:29;;;;;;;4.93;3.13;;;;;;;;;;4952708;28;20218;-64
2023/09/07 01:17:57;;;;;;;6.60;3.55;;;;;;;;;;4938756;28;20211;-63
2023/09/07 01:20:24;;;;;;;4.10;3.75;;;;;;;;;;4953472;28;20200;-64
2023/09/07 01:22:53;;;;;;;3.58;3.22;;;;;;;;;;4951264;28;20218;-63
2023/09/07 01:25:20;;;;;;;3.95;3.47;;;;;;;;;;4952484;28;20211;-64
2023/09/07 01:27:48;;;;;;;3.80;3.40;;;;;;;;;;4963129;28;20616;-63
2023/09/07 01:30:15;;;;;;;6.65;3.45;;;;;;;;;;4954371;28;20238;-64
2023/09/07 01:32:42;;;;;;;3.92;3.63;;;;;;;;;;4955808;28;20751;-63
2023/09/07 01:35:12;;;;;;;6.72;3.40;;;;;;;;;;4970763;28;20222;-64
2023/09/07 01:37:39;;;;;;;3.38;3.05;;;;;;;;;;4966480;28;20202;-64
2023/09/07 01:40:09;;;;;;;8.90;3.60;;;;;;;;;;4953042;28;20238;-64
2023/09/07 01:42:36;;;;;;;3.58;3.38;;;;;;;;;;4968891;28;20202;-64
2023/09/07 01:45:03;;;;;;;5.97;3.70;;;;;;;;;;4952465;28;20214;-64
2023/09/07 01:47:30;;;;;;;5.20;3.30;;;;;;;;;;4952375;28;20213;-64
2023/09/07 01:49:58;;;;;;;3.72;3.42;;;;;;;;;;4955853;28;20254;-64
2023/09/07 01:52:25;;;;;;;6.07;3.20;;;;;;;;;;4951406;28;20700;-64
2023/09/07 01:54:52;;;;;;;3.47;3.28;;;;;;;;;;4950408;28;20218;-64
2023/09/07 01:57:20;;;;;;;3.28;3.13;;;;;;;;;;4953161;28;20211;-64
2023/09/07 01:59:48;;;;;;;3.85;3.50;;;;;;;;;;4957062;28;20677;-64
2023/09/07 02:02:15;;;;;;;3.17;2.97;;;;;;;;;;4952229;28;20215;-64
2023/09/07 02:04:45;;;;;;;3.85;3.40;;;;;;;;;;4949799;28;20215;-64
2023/09/07 02:07:12;;;;;;;3.58;3.28;;;;;;;;;;4950596;28;20215;-63
2023/09/07 02:09:39;;;;;;;3.97;3.78;;;;;;;;;;4954976;28;20246;-63
2023/09/07 02:12:07;;;;;;;5.15;3.40;;;;;;;;;;4955332;28;20235;-63
2023/09/07 02:14:35;;;;;;;3.38;3.17;;;;;;;;;;4950549;28;20211;-63
2023/09/07 02:17:02;;;;;;;3.47;3.38;;;;;;;;;;4957646;28;20217;-63
2023/09/07 02:19:29;;;;;;;3.40;3.10;;;;;;;;;;4959356;28;20203;-64
2023/09/07 02:21:56;;;;;;;3.13;2.92;;;;;;;;;;4951890;28;20677;-64
2023/09/07 02:24:23;;;;;;;3.63;3.42;;;;;;;;;;4950545;29;20218;-63
2023/09/07 02:26:50;;;;;;;4.57;3.25;;;;;;;;;;4950499;28;20351;-63
2023/09/07 02:29:17;;;;;;;3.58;3.38;;;;;;;;;;4949100;28;20210;-64
2023/09/07 02:31:46;;;;;;;3.25;3.00;;;;;;;;;;4949212;28;20214;-63
2023/09/07 02:34:13;;;;;;;5.82;3.45;;;;;;;;;;4961659;28;20971;-63
2023/09/07 02:36:40;;;;;;;3.63;3.33;;;;;;;;;;4961705;28;20210;-64
2023/09/07 02:39:08;;;;;;;3.55;3.22;;;;;;;;;;4957338;28;20235;-63
2023/09/07 02:41:35;;;;;;;3.15;3.05;;;;;;;;;;4947301;28;20287;-63
2023/09/07 02:44:02;;;;;;;4.40;3.00;;;;;;;;;;4951355;28;20230;-63
2023/09/07 02:46:29;;;;;;;3.50;3.30;;;;;;;;;;4956070;28;20586;-63
2023/09/07 02:48:58;;;;;;;3.20;3.00;;;;;;;;;;4958517;28;20207;-63
2023/09/07 02:51:25;;;;;;;3.13;2.92;;;;;;;;;;4952889;28;20227;-63
2023/09/07 02:53:52;;;;;;;3.83;3.53;;;;;;;;;;4953496;28;20261;-63
2023/09/07 02:56:19;;;;;;;3.42;3.22;;;;;;;;;;4970223;28;20245;-64
2023/09/07 02:58:46;;;;;;;3.75;3.45;;;;;;;;;;4972478;28;20214;-63
2023/09/07 03:01:14;;;;;;;2.92;2.65;;;;;;;;;;4959579;28;20297;-64
2023/09/07 03:03:42;;;;;;;4.00;3.05;;;;;;;;;;4961438;28;20677;-63
2023/09/07 03:06:11;;;;;;;3.75;3.20;;;;;;;;;;4961418;28;20210;-64
2023/09/07 03:08:38;;;;;;;4.47;3.28;;;;;;;;;;4963586;28;20214;-63
2023/09/07 03:11:05;;;;;;;3.40;3.20;;;;;;;;;;4964808;28;20311;-64
2023/09/07 03:13:32;;;;;;;3.90;3.28;;;;;;;;;;4954052;28;20243;-63
2023/09/07 03:16:00;;;;;;;3.17;2.97;;;;;;;;;;4965381;28;20214;-63
2023/09/07 03:18:27;;;;;;;3.95;3.42;;;;;;;;;;4960152;28;20198;-63
2023/09/07 03:20:56;;;;;;;3.55;3.30;;;;;;;;;;4972601;28;20834;-63
2023/09/07 03:23:24;;;;;;;3.40;3.20;;;;;;;;;;4968975;28;20301;-64
2023/09/07 03:25:51;;;;;;;3.20;3.10;;;;;;;;;;4953297;29;20221;-64
2023/09/07 03:28:18;;;;;;;3.92;3.03;;;;;;;;;;4953685;28;20222;-64
2023/09/07 03:30:46;;;;;;;3.50;3.30;;;;;;;;;;4953640;28;20243;-63
2023/09/07 03:33:13;;;;;;;3.50;3.20;;;;;;;;;;4955183;28;20213;-64
2023/09/07 03:35:40;;;;;;;4.28;3.22;;;;;;;;;;4967452;28;20206;-63
2023/09/07 03:38:08;;;;;;;3.45;3.15;;;;;;;;;;4968522;28;20740;-63
2023/09/07 03:40:36;;;;;;;2.92;2.72;;;;;;;;;;4956093;28;20235;-63
2023/09/07 03:43:04;;;;;;;3.55;3.35;;;;;;;;;;4969597;28;20210;-63
2023/09/07 03:45:31;;;;;;;3.40;3.20;;;;;;;;;;4945099;28;20230;-63
2023/09/07 03:47:59;;;;;;;3.42;3.22;;;;;;;;;;4956678;28;20238;-63
2023/09/07 03:50:26;;;;;;;3.28;3.00;;;;;;;;;;4962010;28;20465;-63
2023/09/07 03:52:53;;;;;;;4.18;2.88;;;;;;;;;;4960790;28;20218;-64
2023/09/07 03:55:20;;;;;;;5.03;3.42;;;;;;;;;;4954557;28;20218;-63
2023/09/07 03:57:48;;;;;;;3.30;3.10;;;;;;;;;;4956857;28;20207;-63
2023/09/07 04:00:15;;;;;;;3.30;3.10;;;;;;;;;;4959996;28;20207;-63
2023/09/07 04:02:43;;;;;;;3.95;3.60;;;;;;;;;;4957038;28;20674;-63
2023/09/07 04:05:11;;;;;;;3.63;3.42;;;;;;;;;;4953425;28;20213;-63
2023/09/07 04:07:38;;;;;;;3.97;3.33;;;;;;;;;;4953030;28;20643;-63
2023/09/07 04:10:06;;;;;;;3.33;3.13;;;;;;;;;;4953058;28;20262;-63
2023/09/07 04:12:34;;;;;;;3.28;3.17;;;;;;;;;;4953022;28;20214;-63
2023/09/07 04:15:03;;;;;;;4.72;3.40;;;;;;;;;;4953857;28;20304;-63
2023/09/07 04:17:32;;;;;;;3.60;3.40;;;;;;;;;;4959664;28;20202;-64
2023/09/07 04:19:59;;;;;;;3.53;3.28;;;;;;;;;;4960612;28;20657;-64
2023/09/07 04:22:26;;;;;;;3.67;3.35;;;;;;;;;;4970813;28;20225;-63
2023/09/07 04:24:53;;;;;;;4.10;3.40;;;;;;;;;;4963432;28;20221;-63
2023/09/07 04:27:20;;;;;;;3.70;3.50;;;;;;;;;;4934571;28;20649;-63
2023/09/07 04:29:49;;;;;;;4.93;3.25;;;;;;;;;;4961147;28;20207;-63
2023/09/07 04:32:18;;;;;;;3.53;3.33;;;;;;;;;;4968757;28;20565;-64
2023/09/07 04:34:45;;;;;;;5.32;3.90;;;;;;;;;;4958706;28;20199;-64
2023/09/07 04:37:13;;;;;;;3.03;2.92;;;;;;;;;;4954550;28;20270;-63
2023/09/07 04:39:40;;;;;;;3.40;3.20;;;;;;;;;;4951979;29;20634;-64
2023/09/07 04:42:07;;;;;;;3.85;3.55;;;;;;;;;;4952476;28;20215;-64
2023/09/07 04:44:35;;;;;;;4.05;3.75;;;;;;;;;;4968138;28;20298;-63
2023/09/07 04:47:02;;;;;;;3.35;3.05;;;;;;;;;;4953224;28;20206;-63
2023/09/07 04:49:31;;;;;;;4.03;3.60;;;;;;;;;;4957993;28;20215;-63
2023/09/07 04:51:58;;;;;;;3.45;3.15;;;;;;;;;;4953262;28;20235;-63
2023/09/07 04:54:25;;;;;;;6.25;3.60;;;;;;;;;;4951429;28;20662;-63
2023/09/07 04:56:52;;;;;;;2.88;2.78;;;;;;;;;;4952850;28;20272;-60
2023/09/07 04:59:19;;;;;;;3.65;3.35;;;;;;;;;;4960171;28;20210;-60
2023/09/07 05:01:47;;;;;;;3.70;3.50;;;;;;;;;;4954281;28;20214;-60
2023/09/07 05:04:14;;;;;;;3.10;2.90;;;;;;;;;;4953631;28;20207;-60
2023/09/07 05:06:43;;;;;;;3.50;3.30;;;;;;;;;;4968993;28;20301;-60
2023/09/07 05:09:11;;;;;;;5.28;3.30;;;;;;;;;;4962458;28;20206;-59
2023/09/07 05:11:38;;;;;;;45.30;27.10;;;;;;;;;;4967435;28;20250;-60
2023/09/07 05:14:05;;;;;;;4.88;3.17;;;;;;;;;;4970515;28;20205;-60
2023/09/07 05:16:32;;;;;;;3.58;3.30;;;;;;;;;;4962408;28;20202;-61
2023/09/07 05:18:59;;;;;;;3.60;3.40;;;;;;;;;;4956593;28;20211;-60
2023/09/07 05:21:26;;;;;;;3.88;3.58;;;;;;;;;;4942257;28;20207;-61
2023/09/07 05:23:54;;;;;;;5.85;3.40;;;;;;;;;;4965056;28;20237;-60
2023/09/07 05:26:23;;;;;;;3.92;3.30;;;;;;;;;;4952701;28;20214;-60
2023/09/07 05:28:50;;;;;;;3.67;3.47;;;;;;;;;;4953789;28;20214;-61
2023/09/07 05:31:17;;;;;;;5.05;3.47;;;;;;;;;;4970343;28;20242;-61
2023/09/07 05:33:45;;;;;;;9.13;4.25;;;;;;;;;;4968056;28;20217;-61
2023/09/07 05:36:12;;;;;;;4.00;3.55;;;;;;;;;;4970563;28;20214;-61
2023/09/07 05:38:39;;;;;;;3.78;3.30;;;;;;;;;;4968652;28;20264;-61
2023/09/07 05:41:07;;;;;;;4.05;3.45;;;;;;;;;;4968515;28;20325;-61
2023/09/07 05:43:34;;;;;;;3.60;3.40;;;;;;;;;;4950389;28;20207;-61
2023/09/07 05:46:01;;;;;;;4.28;3.72;;;;;;;;;;4964286;28;20234;-61
2023/09/07 05:48:28;;;;;;;3.85;3.50;;;;;;;;;;4956844;28;20210;-61
2023/09/07 05:50:55;;;;;;;5.72;3.42;;;;;;;;;;4955876;28;20230;-62
2023/09/07 05:53:24;;;;;;;3.63;3.28;;;;;;;;;;4963883;28;20210;-61
2023/09/07 05:55:51;;;;;;;3.78;3.50;;;;;;;;;;4957272;28;20207;-61
2023/09/07 05:58:20;;;;;;;3.72;3.50;;;;;;;;;;4956585;28;20302;-58
2023/09/07 06:00:47;;;;;;;4.00;3.40;;;;;;;;;;4968448;28;20309;-62
2023/09/07 06:03:14;;;;;;;8.18;3.85;;;;;;;;;;4965166;28;20214;-59
2023/09/07 06:05:41;;;;;;;5.13;3.75;;;;;;;;;;4953489;28;20210;-59
2023/09/07 06:08:08;;;;;;;3.55;3.35;;;;;;;;;;4949990;28;20213;-59
2023/09/07 06:10:35;;;;;;;3.58;3.22;;;;;;;;;;4950967;28;20218;-59
2023/09/07 06:13:02;;;;;;;3.55;3.33;;;;;;;;;;4950055;28;20207;-59
2023/09/07 06:15:31;;;;;;;4.90;3.65;;;;;;;;;;4949040;28;20290;-61
2023/09/07 06:17:58;;;;;;;4.25;3.17;;;;;;;;;;4951008;28;20235;-60
2023/09/07 06:20:25;;;;;;;4.38;3.70;;;;;;;;;;4951050;28;20662;-59
2023/09/07 06:22:52;;;;;;;4.97;3.42;;;;;;;;;;4950813;28;20211;-59
2023/09/07 06:25:21;;;;;;;5.20;3.30;;;;;;;;;;4951560;28;20218;-60
2023/09/07 06:27:48;;;;;;;5.50;3.38;;;;;;;;;;4952734;28;20211;-60
2023/09/07 06:30:15;;;;;;;3.53;3.30;;;;;;;;;;4953222;29;20713;-60
2023/09/07 06:32:44;;;;;;;3.70;3.40;;;;;;;;;;4953573;28;20249;-63
2023/09/07 06:35:11;;;;;;;6.22;3.08;;;;;;;;;;4953699;28;20581;-61
2023/09/07 06:37:40;;;;;;;3.60;3.30;;;;;;;;;;4954167;28;20199;-61
2023/09/07 06:40:09;;;;;;;5.90;3.28;;;;;;;;;;4953252;28;20262;-61
2023/09/07 06:42:36;;;;;;;3.65;3.45;;;;;;;;;;4954373;28;20290;-61
2023/09/07 06:45:03;;;;;;;3.47;3.30;;;;;;;;;;4954352;28;20683;-61
2023/09/07 06:47:30;;;;;;;3.03;2.92;;;;;;;;;;4960757;28;20195;-61
2023/09/07 06:49:59;;;;;;;3.35;3.25;;;;;;;;;;4957421;28;20634;-62
2023/09/07 06:52:26;;;;;;;5.03;3.00;;;;;;;;;;4953276;28;20238;-61
2023/09/07 06:54:54;;;;;;;3.50;3.28;;;;;;;;;;4952498;28;20211;-61
2023/09/07 06:57:21;;;;;;;3.40;3.20;;;;;;;;;;4972366;28;20210;-62
2023/09/07 06:59:48;;;;;;;3.45;3.15;;;;;;;;;;4972460;28;20279;-62
2023/09/07 07:02:16;;;;;;;4.47;3.38;;;;;;;;;;4954501;28;20301;-61
2023/09/07 07:04:43;;;;;;;3.72;3.42;;;;;;;;;;4953122;29;20226;-62
2023/09/07 07:07:12;;;;;;;5.93;3.33;;;;;;;;;;4952058;28;20278;-61
2023/09/07 07:09:41;;;;;;;3.03;2.92;;;;;;;;;;4950531;29;20226;-61
2023/09/07 07:12:12;;;;;;;3.75;3.45;;;;;;;;;;4952726;28;20710;-61
2023/09/07 07:14:39;;;;;;;3.85;3.17;;;;;;;;;;4953025;29;20644;-62
2023/09/07 07:17:06;;;;;;;3.17;3.08;;;;;;;;;;4952696;28;20214;-63
2023/09/07 07:19:33;;;;;;;3.83;3.63;;;;;;;;;;4956100;28;20206;-61
2023/09/07 07:22:00;;;;;;;3.03;2.92;;;;;;;;;;4960677;28;20213;-60
2023/09/07 07:24:28;;;;;;;3.47;3.28;;;;;;;;;;4964473;28;20218;-61
2023/09/07 07:26:56;;;;;;;3.67;3.40;;;;;;;;;;4962100;28;20207;-71
2023/09/07 07:29:23;;;;;;;3.22;3.08;;;;;;;;;;4951957;29;20913;-62
2023/09/07 07:31:50;;;;;;;3.50;3.30;;;;;;;;;;4952188;29;20238;-62
2023/09/07 07:34:17;;;;;;;3.58;3.42;;;;;;;;;;4951583;28;20218;-63
2023/09/07 07:36:44;;;;;;;4.03;3.65;;;;;;;;;;4950039;28;20584;-63
2023/09/07 07:39:11;;;;;;;3.45;3.22;;;;;;;;;;4951827;28;20906;-60
2023/09/07 07:41:40;;;;;;;3.95;3.67;;;;;;;;;;4952301;29;20254;-63
2023/09/07 07:44:07;;;;;;;4.32;3.35;;;;;;;;;;4952280;29;20241;-64
2023/09/07 07:46:34;;;;;;;3.92;3.30;;;;;;;;;;4952144;28;20226;-64
2023/09/07 07:49:01;;;;;;;3.53;3.40;;;;;;;;;;4953014;29;20226;-67
2023/09/07 07:51:28;;;;;;;3.78;3.30;;;;;;;;;;4952529;29;20633;-64
2023/09/07 07:53:56;;;;;;;3.15;3.00;;;;;;;;;;4956904;28;20696;-64
2023/09/07 07:56:25;;;;;;;4.68;3.50;;;;;;;;;;4952597;29;20239;-64
2023/09/07 07:58:53;;;;;;;4.78;3.60;;;;;;;;;;4953292;28;20231;-65
2023/09/07 08:01:21;;;;;;;3.72;3.53;;;;;;;;;;4952369;29;20901;-64
2023/09/07 08:03:49;;;;;;;3.50;3.30;;;;;;;;;;4952555;29;20234;-65
2023/09/07 08:06:16;;;;;;;3.58;3.38;;;;;;;;;;4951310;29;20222;-64
2023/09/07 08:08:43;;;;;;;3.45;3.22;;;;;;;;;;4952134;29;20222;-64
2023/09/07 08:11:10;;;;;;;4.00;3.78;;;;;;;;;;4951791;29;20241;-65
2023/09/07 08:13:37;;;;;;;5.65;3.60;;;;;;;;;;4950326;29;20218;-65
2023/09/07 08:16:06;;;;;;;4.00;3.70;;;;;;;;;;4957764;28;20689;-64
2023/09/07 08:18:34;;;;;;;5.38;3.35;;;;;;;;;;4969483;28;20302;-65
2023/09/07 08:21:01;;;;;;;3.65;3.53;;;;;;;;;;4971434;28;20218;-64
2023/09/07 08:23:28;;;;;;;4.25;3.88;;;;;;;;;;4971254;28;20213;-63
2023/09/07 08:25:55;;;;;;;4.00;3.70;;;;;;;;;;4948267;28;20222;-63
2023/09/07 08:28:22;;;;;;;5.15;3.70;;;;;;;;;;4952851;28;20242;-64
2023/09/07 08:30:52;;;;;;;3.60;3.38;;;;;;;;;;4970939;28;20229;-63
2023/09/07 08:33:22;;;;;;;3.72;3.53;;;;;;;;;;4970955;28;20325;-63
2023/09/07 08:35:53;;;;;;;4.07;3.80;;;;;;;;;;4970869;28;20219;-64
2023/09/07 08:38:22;;;;;;;3.55;3.35;;;;;;;;;;4970855;28;20234;-65
2023/09/07 08:40:49;;;;;;;4.88;3.53;;;;;;;;;;4970614;28;20257;-64
2023/09/07 08:43:18;;;;;;;3.80;3.60;;;;;;;;;;4971025;28;20217;-63
2023/09/07 08:45:48;;;;;;;3.63;3.42;;;;;;;;;;4967482;28;20211;-64
2023/09/07 08:48:17;;;;;;;4.13;3.80;;;;;;;;;;4961600;28;20211;-64
2023/09/07 08:50:49;;;;;;;3.85;3.60;;;;;;;;;;4951417;29;20293;-65
2023/09/07 08:53:18;;;;;;;3.50;3.30;;;;;;;;;;4949295;29;20290;-65
2023/09/07 08:55:45;;;;;;;3.50;3.28;;;;;;;;;;4950816;29;20223;-65
2023/09/07 08:58:13;;;;;;;3.30;3.20;;;;;;;;;;4947895;29;20222;-65
2023/09/07 09:00:43;;;;;;;3.33;3.15;;;;;;;;;;4948540;29;20219;-65
2023/09/07 09:03:10;;;;;;;3.00;2.80;;;;;;;;;;4947667;28;20234;-66
2023/09/07 09:05:38;;;;;;;3.53;3.33;;;;;;;;;;4949870;29;20211;-64
2023/09/07 09:08:07;;;;;;;3.95;3.75;;;;;;;;;;4951920;28;20661;-65
2023/09/07 09:10:34;;;;;;;3.50;3.30;;;;;;;;;;4950590;29;20597;-65
2023/09/07 09:13:01;;;;;;;4.65;3.28;;;;;;;;;;4951191;28;20231;-66
2023/09/07 09:15:28;;;;;;;3.55;3.35;;;;;;;;;;4968970;28;20217;-65
2023/09/07 09:17:55;;;;;;;4.30;3.90;;;;;;;;;;4970203;28;20213;-64
2023/09/07 09:20:29;;;;;;;3.90;3.60;;;;;;;;;;4968307;28;20210;-64
2023/09/07 09:22:57;;;;;;;3.75;3.53;;;;;;;;;;4969257;28;20599;-65
2023/09/07 09:25:26;;;;;;;3.63;3.53;;;;;;;;;;4931518;29;20698;-65
2023/09/07 09:27:53;;;;;;;4.05;3.75;;;;;;;;;;4931675;29;20278;-66
2023/09/07 09:30:20;;;;;;;3.33;3.17;;;;;;;;;;4943054;28;20927;-65
2023/09/07 09:32:48;;;;;;;3.40;3.20;;;;;;;;;;4961368;28;20704;-63
2023/09/07 09:35:17;;;;;;;3.65;3.40;;;;;;;;;;4951100;29;20225;-65
2023/09/07 09:37:45;;;;;;;3.88;3.67;;;;;;;;;;4950047;28;20215;-67
2023/09/07 09:40:13;;;;;;;4.10;3.80;;;;;;;;;;4950527;29;20795;-64
2023/09/07 09:42:43;;;;;;;3.13;3.03;;;;;;;;;;4953530;28;20677;-65
2023/09/07 09:45:10;;;;;;;3.90;3.55;;;;;;;;;;4950457;29;20203;-65
2023/09/07 09:47:39;;;;;;;3.53;3.33;;;;;;;;;;4950608;29;20300;-65
2023/09/07 09:50:07;;;;;;;4.20;3.88;;;;;;;;;;4957291;28;20206;-64
2023/09/07 09:52:35;;;;;;;3.72;3.53;;;;;;;;;;4969702;28;20230;-63
2023/09/07 09:55:05;;;;;;;3.80;3.15;;;;;;;;;;4968907;28;20210;-64
2023/09/07 09:57:32;;;;;;;3.67;3.38;;;;;;;;;;4950082;29;20218;-65
2023/09/07 10:00:06;;;;;;;3.88;3.58;;;;;;;;;;4951594;28;20215;-65
2023/09/07 10:02:34;;;;;;;3.60;3.50;;;;;;;;;;4950420;28;20211;-64
2023/09/07 10:05:06;;;;;;;6.63;3.38;;;;;;;;;;4950905;28;20222;-64
2023/09/07 10:07:43;;;;;;;3.58;3.40;;;;;;;;;;4971401;28;20600;-63
2023/09/07 10:10:11;;;;;;;3.28;3.08;;;;;;;;;;4965943;28;20313;-65
2023/09/07 10:12:41;;;;;;;4.13;3.83;;;;;;;;;;4958033;28;20281;-65
2023/09/07 10:15:20;;;;;;;3.88;3.58;;;;;;;;;;4960487;28;20229;-65
2023/09/07 10:17:50;;;;;;;3.70;3.50;;;;;;;;;;4952956;29;20225;-66
2023/09/07 10:20:17;;;;;;;4.28;3.97;;;;;;;;;;4956713;28;20219;-64
2023/09/07 10:22:45;;;;;;;3.40;3.17;;;;;;;;;;4952121;28;20211;-65
2023/09/07 10:25:20;;;;;;;3.60;3.33;;;;;;;;;;4961881;28;20222;-65
2023/09/07 10:27:47;;;;;;;5.03;3.30;;;;;;;;;;4952460;29;20210;-65
2023/09/07 10:30:19;;;;;;;3.78;3.58;;;;;;;;;;4953944;28;20685;-64
2023/09/07 10:32:46;;;;;;;3.38;3.22;;;;;;;;;;4957939;28;20678;-63
2023/09/07 10:35:16;;;;;;;4.53;3.20;;;;;;;;;;4957681;28;20218;-64
2023/09/07 10:37:46;;;;;;;3.70;3.40;;;;;;;;;;4952664;28;20246;-64
2023/09/07 10:40:15;;;;;;;3.67;3.45;;;;;;;;;;4953248;29;20341;-65
2023/09/07 10:42:43;;;;;;;4.60;3.47;;;;;;;;;;4961106;28;20221;-66
2023/09/07 10:45:12;;;;;;;5.07;3.30;;;;;;;;;;4963566;28;20948;-65
2023/09/07 10:47:43;;;;;;;3.42;3.33;;;;;;;;;;4944271;29;20211;-66
2023/09/07 10:50:12;;;;;;;3.50;3.33;;;;;;;;;;4940586;29;20210;-65
2023/09/07 10:52:40;;;;;;;4.20;3.20;;;;;;;;;;4950081;29;20572;-66
2023/09/07 10:55:07;;;;;;;3.50;3.30;;;;;;;;;;4949954;28;20238;-66
2023/09/07 10:57:42;;;;;;;3.38;3.13;;;;;;;;;;4951078;29;20215;-66
2023/09/07 11:00:10;;;;;;;3.35;3.13;;;;;;;;;;4952017;29;20217;-66
2023/09/07 11:02:38;;;;;;;3.30;3.10;;;;;;;;;;4951862;29;20207;-65
2023/09/07 11:05:06;;;;;;;3.13;2.92;;;;;;;;;;4951888;29;20248;-65
2023/09/07 11:07:34;;;;;;;3.55;3.40;;;;;;;;;;4950995;28;20215;-64
2023/09/07 11:10:04;;;;;;;2.95;2.83;;;;;;;;;;4951907;29;20222;-66
2023/09/07 11:12:31;;;;;;;3.30;3.20;;;;;;;;;;4937806;29;20243;-66
2023/09/07 11:14:58;;;;;;;4.90;3.15;;;;;;;;;;4952476;29;20306;-66
2023/09/07 11:17:29;;;;;;;3.25;3.15;;;;;;;;;;4952034;29;20238;-64
2023/09/07 11:19:56;;;;;;;3.55;3.38;;;;;;;;;;4952937;28;20230;-63
2023/09/07 11:22:24;;;;;;;4.97;3.15;;;;;;;;;;4967120;28;20211;-64
2023/09/07 11:24:52;;;;;;;4.05;3.30;;;;;;;;;;4961692;28;20265;-64
2023/09/07 11:27:19;;;;;;;3.83;3.47;;;;;;;;;;4957457;28;20211;-65
2023/09/07 11:29:52;;;;;;;3.33;3.13;;;;;;;;;;4952481;28;20215;-65
2023/09/07 11:32:21;;;;;;;3.42;3.17;;;;;;;;;;4951297;29;20226;-65
2023/09/07 11:34:49;;;;;;;3.25;3.13;;;;;;;;;;4951497;29;20936;-66
2023/09/07 11:37:17;;;;;;;4.70;2.83;;;;;;;;;;4952323;28;20302;-65
2023/09/07 11:39:47;;;;;;;3.78;3.35;;;;;;;;;;4949523;28;20267;-65
2023/09/07 11:42:14;;;;;;;3.88;3.58;;;;;;;;;;4957303;28;20217;-64
2023/09/07 11:44:42;;;;;;;4.55;3.15;;;;;;;;;;4960892;28;20731;-66
2023/09/07 11:47:10;;;;;;;2.90;2.80;;;;;;;;;;4963162;28;20207;-66
2023/09/07 11:49:37;;;;;;;3.20;3.08;;;;;;;;;;4957281;28;20225;-66
2023/09/07 11:52:04;;;;;;;3.78;3.35;;;;;;;;;;4950856;28;20215;-70
2023/09/07 11:54:31;;;;;;;3.10;2.90;;;;;;;;;;4949469;28;20242;-66
2023/09/07 11:56:59;;;;;;;5.28;3.30;;;;;;;;;;4950584;29;20219;-65
2023/09/07 11:59:28;;;;;;;3.75;3.22;;;;;;;;;;4950149;29;20210;-66
2023/09/07 12:01:55;;;;;;;2.92;2.83;;;;;;;;;;4953285;28;20207;-67
2023/09/07 12:04:22;;;;;;;4.15;3.60;;;;;;;;;;4959879;28;20464;-65
2023/09/07 12:06:49;;;;;;;4.28;3.13;;;;;;;;;;4949871;28;20215;-64
2023/09/07 12:09:17;;;;;;;3.47;3.25;;;;;;;;;;4947439;28;20242;-66
2023/09/07 12:11:44;;;;;;;4.10;3.22;;;;;;;;;;4951293;28;22103;-64
2023/09/07 12:14:12;;;;;;;2.75;2.58;;;;;;;;;;4950722;29;20337;-67
2023/09/07 12:16:39;;;;;;;3.08;2.88;;;;;;;;;;4951060;28;20207;-65
2023/09/07 12:19:06;;;;;;;3.30;3.20;;;;;;;;;;4950098;28;20221;-71
2023/09/07 12:21:33;;;;;;;4.68;2.97;;;;;;;;;;4966060;28;20217;-69
2023/09/07 12:24:00;;;;;;;4.38;2.88;;;;;;;;;;4949717;28;20298;-69
2023/09/07 12:26:28;;;;;;;5.43;5.03;;;;;;;;;;4954295;28;20233;-69
2023/09/07 12:28:55;;;;;;;3.40;3.20;;;;;;;;;;4953058;28;20210;-70
2023/09/07 12:31:23;;;;;;;4.88;2.97;;;;;;;;;;4950952;28;20222;-68
2023/09/07 12:33:50;;;;;;;2.70;2.60;;;;;;;;;;4951840;28;20230;-67
2023/09/07 12:36:17;;;;;;;3.03;2.90;;;;;;;;;;4949614;28;20203;-70
2023/09/07 12:38:44;;;;;;;3.22;3.08;;;;;;;;;;4950489;28;20640;-67
2023/09/07 12:41:11;;;;;;;3.35;3.00;;;;;;;;;;4954523;28;20247;-70
2023/09/07 12:43:38;;;;;;;3.00;2.90;;;;;;;;;;4950779;28;20214;-68
2023/09/07 12:46:06;;;;;;;3.50;3.30;;;;;;;;;;4956173;28;20224;-68
2023/09/07 12:48:34;;;;;;;2.97;2.80;;;;;;;;;;4964706;28;20207;-69
2023/09/07 12:51:01;;;;;;;2.75;2.65;;;;;;;;;;4950345;28;20223;-69
2023/09/07 12:53:29;;;;;;;3.42;3.22;;;;;;;;;;4952899;28;20227;-68
2023/09/07 12:55:56;;;;;;;3.10;3.00;;;;;;;;;;4950780;28;20218;-69
2023/09/07 12:58:23;;;;;;;7.78;3.17;;;;;;;;;;4950146;28;20507;-70
2023/09/07 13:00:51;;;;;;;3.28;3.15;;;;;;;;;;4956838;28;20203;-69
2023/09/07 13:03:18;;;;;;;3.00;2.80;;;;;;;;;;4964989;28;20579;-70
2023/09/07 13:05:46;;;;;;;2.95;2.85;;;;;;;;;;4958077;28;20690;-69
2023/09/07 13:08:13;;;;;;;3.53;3.33;;;;;;;;;;4950129;29;20709;-69
2023/09/07 13:10:40;;;;;;;2.80;2.70;;;;;;;;;;4966927;28;20209;-70
2023/09/07 13:13:08;;;;;;;2.97;2.88;;;;;;;;;;4969764;28;20238;-70
2023/09/07 13:15:35;;;;;;;2.90;2.80;;;;;;;;;;4969200;28;20214;-69
2023/09/07 13:18:02;;;;;;;2.75;2.65;;;;;;;;;;4968106;28;20692;-64
2023/09/07 13:20:29;;;;;;;3.67;2.80;;;;;;;;;;4947102;29;20211;-64
2023/09/07 13:22:58;;;;;;;6.22;3.20;;;;;;;;;;4948717;28;20218;-64
2023/09/07 13:25:26;;;;;;;5.45;3.15;;;;;;;;;;4949997;29;20234;-64
2023/09/07 13:27:53;;;;;;;3.05;2.95;;;;;;;;;;4949694;29;20239;-63
2023/09/07 13:30:20;;;;;;;3.20;3.00;;;;;;;;;;4948901;29;20301;-65
2023/09/07 13:32:47;;;;;;;3.88;2.90;;;;;;;;;;4947450;28;20741;-64
2023/09/07 13:35:14;;;;;;;3.35;3.15;;;;;;;;;;4962758;28;20832;-64
2023/09/07 13:37:41;;;;;;;2.80;2.78;;;;;;;;;;4949737;29;20227;-64
2023/09/07 13:40:10;;;;;;;2.88;2.78;;;;;;;;;;4950075;28;20253;-64
2023/09/07 13:42:38;;;;;;;3.25;3.05;;;;;;;;;;4961350;28;20251;-64
2023/09/07 13:45:06;;;;;;;2.78;2.67;;;;;;;;;;4962977;28;20277;-64
2023/09/07 13:47:33;;;;;;;3.42;3.08;;;;;;;;;;4954734;28;20670;-63
2023/09/07 13:50:00;;;;;;;4.68;3.10;;;;;;;;;;4954135;28;20215;-63
2023/09/07 13:52:27;;;;;;;3.33;3.03;;;;;;;;;;4954595;28;20203;-63
2023/09/07 13:54:54;;;;;;;3.17;3.08;;;;;;;;;;4960130;28;20231;-62
2023/09/07 13:57:22;;;;;;;2.95;2.85;;;;;;;;;;4950142;29;20871;-62
2023/09/07 13:59:49;;;;;;;5.15;2.95;;;;;;;;;;4949533;28;20219;-64
2023/09/07 14:02:16;;;;;;;3.47;3.17;;;;;;;;;;4949296;28;20219;-63
2023/09/07 14:04:43;;;;;;;3.05;2.78;;;;;;;;;;4949918;28;20207;-67
2023/09/07 14:07:10;;;;;;;2.97;2.78;;;;;;;;;;4945782;28;20219;-66
2023/09/07 14:09:38;;;;;;;3.20;2.88;;;;;;;;;;4946751;29;20214;-65
2023/09/07 14:12:05;;;;;;;3.13;3.00;;;;;;;;;;4943427;29;20211;-68
2023/09/07 14:14:33;;;;;;;2.97;2.88;;;;;;;;;;4957291;28;20322;-67
2023/09/07 14:17:00;;;;;;;3.40;3.20;;;;;;;;;;4962830;28;20203;-67
2023/09/07 14:19:30;;;;;;;3.05;2.95;;;;;;;;;;4948241;29;20602;-67
2023/09/07 14:21:57;;;;;;;5.00;3.25;;;;;;;;;;4944199;29;20215;-67
2023/09/07 14:24:24;;;;;;;3.22;3.03;;;;;;;;;;4957677;28;20669;-67
2023/09/07 14:26:51;;;;;;;2.88;2.78;;;;;;;;;;4954234;28;20211;-66
2023/09/07 14:29:19;;;;;;;3.10;2.80;;;;;;;;;;4946277;29;20258;-67
2023/09/07 14:31:47;;;;;;;2.65;2.55;;;;;;;;;;4948231;28;20221;-67
2023/09/07 14:34:14;;;;;;;4.40;3.00;;;;;;;;;;4958588;28;20318;-67
2023/09/07 14:36:44;;;;;;;3.67;2.97;;;;;;;;;;4947276;28;20589;-67
2023/09/07 14:39:12;;;;;;;4.65;2.90;;;;;;;;;;4943278;28;20739;-68
2023/09/07 14:41:40;;;;;;;3.10;2.90;;;;;;;;;;4946501;29;20243;-68
2023/09/07 14:44:07;;;;;;;4.55;2.80;;;;;;;;;;4949264;28;20581;-67
2023/09/07 14:46:34;;;;;;;2.83;2.72;;;;;;;;;;4948969;28;20229;-68